Tiempo atmosférico en la estación meteorológica de Girona Aeropuerto, Girona (143 m.)



Fecha
DESCASC
Temp. máxima en grados centígrados (hora)
DESCASC
Temp. mínima en grados centígrados (hora)
DESCASC
Temp. media en grados centígrados
DESCASC
Racha de viento máxima en m/sg (hora)
DESCASC
Velocidad máxima media en intervalos de 10 minutos(hora)
DESCASC
Precipitaciones diarias en mm
DESCASC
Precipitaciones de 00:00 a 06:00 en mm
DESCASC
Precipitaciones de 06:00 a 12:00 en mm
DESCASC
Precipitaciones de 12:00 a 18:00 en mm
DESCASC
Precipitaciones de 18:00 a 24:00 en mm
DESCASC
23-06-2019 34.4 (13:20) 14.3 (05:10) 24.4 10.83 (15:30) 7.5 (15:20) 0 0 0 0 0
22-06-2019 28.5 (12:30) 14.4 (06:30) 21.4 9.72 (15:30) 6.39 (13:50) 0 0 0 0 0
21-06-2019 30 (15:00) 15.7 (06:10) 22.8 8.89 (13:30) 6.11 (17:30) 0 0 0 0 0
20-06-2019 30.8 (15:40) 17.2 (00:00) 24 9.17 (13:50) 6.67 (17:10) 0 0 0 0 0
19-06-2019 31.5 (13:50) 13.5 (00:00) 22.5 10.83 (15:10) 8.06 (17:40) 0 0 0 0 0
18-06-2019 32.1 (13:00) 11.8 (00:00) 21.9 15.28 (14:10) 11.94 (16:40) 0 0 0 0 0
17-06-2019 30.9 (14:00) 12 (00:00) 21.4 9.72 (16:10) 6.94 (16:10) 0 0 0 0 0
16-06-2019 27.7 (14:00) 11.1 (00:00) 19.4 10.28 (14:30) 7.78 (14:40) 0 0 0 0 0
15-06-2019 27.6 (15:20) 13.6 (00:00) 20.6 7.78 (13:30) 5 (15:50) 0 0 0 0 0
14-06-2019 27.6 (16:40) 13.1 (00:00) 20.4 15.28 (11:50) 11.11 (11:50) 0 0 0 0 0
13-06-2019 26 (14:40) 8.5 (00:00) 17.3 8.89 (15:10) 5.83 (15:10) 0 0 0 0 0
12-06-2019 21.8 (15:30) 8.5 (00:00) 15.1 11.67 (17:30) 8.89 (17:50) 0 0 0 0 0
11-06-2019 15.9 (00:00) 11.1 (00:00) 13.5 8.33 (13:40) 6.39 (13:40) 14 1.3 1.7 8.4 2.6
10-06-2019 29.3 (14:10) 14.9 (00:00) 22.1 11.67 (16:20) 8.89 (15:30) 0 0 0 0 0
09-06-2019 26.5 (13:00) 13.2 (00:00) 19.8 9.72 (15:20) 7.22 (16:10) 0 0 0 0 0
08-06-2019 26.3 (16:40) 12.3 (00:00) 19.3 10.28 (10:30) 6.11 (10:20) 0 0 0 0 0
07-06-2019 -- (--) -- (--) -- -- (--) -- (--) -- -- -- -- --
06-06-2019 23.8 (14:40) 8.1 (00:00) 15.9 15.28 (15:00) 11.11 (16:40) 0 0 0 0 0
05-06-2019 27.4 (16:00) 10.8 (00:00) 19.1 15 (17:20) 10.28 (17:40) 0 0 0 0 0
04-06-2019 29.3 (14:10) 13.6 (00:00) 21.4 15.28 (15:10) 11.39 (15:40) 0 0 0 0 0
03-06-2019 31.6 (14:00) 10.7 (00:00) 21.2 12.78 (16:20) 9.72 (16:20) 0 0 0 0 0
02-06-2019 29 (16:30) 10.7 (00:00) 19.8 10.83 (16:00) 7.5 (14:30) 0 0 0 0 0
01-06-2019 29.3 (14:00) 9.8 (00:00) 19.5 9.72 (16:20) 7.78 (16:30) 0 0 0 0 0
31-05-2019 26.6 (13:40) 9.9 (00:00) 18.3 12.5 (15:10) 8.89 (15:30) 0 0 0 0 0
30-05-2019 25.8 (14:30) 8.8 (00:00) 17.3 10.28 (14:50) 6.94 (15:20) 0 0 0 0 0
29-05-2019 22.8 (14:40) 9.2 (00:00) 16 10.83 (15:50) 7.5 (15:50) 0 0 0 0 0
28-05-2019 22.3 (13:00) 11.5 (00:00) 16.9 8.33 (14:10) 5.56 (14:30) 4 0 0 2.2 1.8

Gráficas

Temp. máximas Temp. mínimas Temp. medias Precipitaciones Rachas de viento máximas Velocidades máximas media en intervalos de 10 minutos

Datos horarios

Fecha y hora oficial Temperatura (ºC) Velocidad del viento (km/h) Dirección del viento Racha (km/h) Dirección de racha Precipitación (mm) Presión (hPa) Tendencia (hPa) Humedad (%)
2019-06-26 23:00:00 23.7 6 Oeste 11 Sudoeste 0 1005.4 1.2 55
2019-06-26 22:00:00 25.8 6 Sudoeste 17 Sudoeste 0 1004.9 1.1 51
2019-06-26 21:00:00 29.3 11 Sudoeste 17 Sudoeste 0 1004.5 0.5 39
2019-06-26 20:00:00 33.2 10 Sudeste 21 Sur 0 1004.2 -0.1 27
2019-06-26 19:00:00 34.8 13 Sur 22 Sudeste 0 1003.8 -0.8 24
2019-06-26 18:00:00 36.3 14 Sudeste 22 Sudeste 0 1004 -0.8 22
2019-06-26 17:00:00 37.1 14 Sudeste 26 Sudeste 0 1004.3 -0.8 19
2019-06-26 16:00:00 37.2 18 Sur 30 Sudeste 0 1004.6 -0.7 19
2019-06-26 15:00:00 36.9 12 Este 28 Este 0 1004.8 -0.4 22
2019-06-26 14:00:00 36.1 11 Este 28 Este 0 1005.1 -0.2 23
2019-06-26 13:00:00 34.7 15 Nordeste 32 Nordeste 0 1005.3 -0.2 25
2019-06-26 12:00:00 33.2 19 Nordeste 30 Nordeste 0 1005.2 -0.4 27
2019-06-26 11:00:00 31.7 17 Nordeste 24 Nordeste 0 1005.3 -0.2 31
2019-06-26 10:00:00 30.3 13 Nordeste 17 Nordeste 0 1005.5 0 34
2019-06-26 09:00:00 25.5 5 Nordeste 8 Nordeste 0 1005.6 0.3 52
2019-06-26 08:00:00 21.5 5 Nordeste 8 Nordeste 0 1005.5 0.6 65
2019-06-26 07:00:00 17.3 6 Norte 13 Noroeste 0 1005.5 0.6 81
2019-06-26 06:00:00 16.7 0 Calma 8 Norte 0 1005.3 0.4 83
2019-06-26 05:00:00 18.4 2 Nordeste 11 Norte 0 1004.9 -0.1 78
2019-06-26 04:00:00 17.1 4 Nordeste 8 Nordeste 0 1004.9 -0.1 86
2019-06-26 03:00:00 18.9 5 Norte 13 Noroeste 0 1004.9 0 80
2019-06-26 02:00:00 19.6 3 Norte 9 Norte 0 1005 0.4 79
2019-06-26 01:00:00 20.6 8 Norte 15 Norte 0 1005 1.1 77
2019-06-26 00:00:00 20.3 8 Norte 13 Norte 0 1004.9 1.5 75
2019-06-25 23:00:00 21.5 8 Nordeste 11 Nordeste 0 1004.6 1.6 73
2019-06-25 22:00:00 23.4 9 Norte 11 Norte 0 1003.9 1.3 68
2019-06-25 21:00:00 25.3 6 Este 22 Sudeste 0 1003.4 0.8 62
2019-06-25 20:00:00 26.7 15 Sudeste 26 Este 0 1003 0.6 59
2019-06-25 19:00:00 28.1 14 Este 28 Este 0 1002.6 0.6 54
2019-06-25 18:00:00 29.2 19 Sudeste 33 Sudeste 0 1002.6 0.7 49
2019-06-25 17:00:00 30.5 23 Sudeste 37 Sudeste 0 1002.4 0.2 47
2019-06-25 16:00:00 31.9 21 Sudeste 33 Sudeste 0 1002 -0.5 39
2019-06-25 15:00:00 32.8 21 Sudeste 32 Sudeste 0 1001.9 -1.2 32
2019-06-25 14:00:00 32.9 13 Nordeste 26 Nordeste 0 1002.2 -0.8 31
2019-06-25 13:00:00 31.1 10 Norte 26 Nordeste 0 1002.5 -0.2 35
2019-06-25 12:00:00 30.1 7 Este 22 Nordeste 0 1003.1 0.6 39
2019-06-25 11:00:00 28.3 12 Nordeste 22 Nordeste 0 1003 1 44
2019-06-25 10:00:00 25.6 14 Norte 22 Norte 0 1002.7 1.3 53
2019-06-25 09:00:00 23.5 15 Nordeste 21 Nordeste 0 1002.5 1.3 59
2019-06-25 08:00:00 20.2 11 Norte 17 Norte 0 1002 1 73
2019-06-25 07:00:00 17.4 8 Norte 13 Norte 0 1001.4 0 81
2019-06-25 06:00:00 17.2 5 Norte 15 Norte 0 1001.2 -0.4 83
2019-06-25 05:00:00 17.1 10 Norte 13 Norte 0 1001 -0.8 88
2019-06-25 04:00:00 18 0 Calma 15 Noroeste 0 1001.4 -0.6 87
2019-06-25 03:00:00 17.8 4 Norte 8 Nordeste 0 1001.6 -0.2 90
2019-06-25 02:00:00 19.2 2 Norte 13 Norte 0 1001.8 0.6 88
2019-06-25 01:00:00 19.8 10 Norte 15 Norte 0 1002 1.5 89
2019-06-25 00:00:00 19.8 8 Norte 13 Norte 0 1001.8 1.9 91
2019-06-24 23:00:00 21 7 Nordeste 21 Nordeste 0 1001.2 1.6 85
2019-06-24 22:00:00 22.4 12 Norte 21 Norte 0 1000.5 1 76
2019-06-24 21:00:00 25 3 Noroeste 17 Sudeste 0 999.9 0.5 63
2019-06-24 20:00:00 27 12 Sudeste 22 Sudeste 0 999.6 0 55
2019-06-24 19:00:00 28.4 14 Sudeste 30 Sur 0 999.5 -0.5 47
2019-06-24 18:00:00 32.3 18 Sudeste 28 Sur 0 999.4 -0.9 26
2019-06-24 17:00:00 33 15 Sudeste 28 Sudeste 0 999.6 -1.4 16
2019-06-24 16:00:00 33.3 16 Sudeste 26 Sur 0 1000 -1.2 18
2019-06-24 15:00:00 32.3 13 Sudeste 26 Este 0 1000.3 -1 25
2019-06-24 14:00:00 31.4 15 Sudeste 28 Sur 0 1001 0 29
2019-06-24 13:00:00 30.2 17 Sur 26 Sur 0 1001.2 0.5 34
2019-06-24 12:00:00 29.5 11 Sur 21 Sudeste 0 1001.3 1 39
2019-06-24 11:00:00 27.8 12 Sur 22 Sur 0 1001 0.9 48
2019-06-24 10:00:00 25.7 4 Este 11 Nordeste 0 1000.7 0.8 57
2019-06-24 09:00:00 21.7 7 Nordeste 15 Este 0 1000.3 0.4 72
2019-06-24 08:00:00 18.5 6 Nordeste 8 Nordeste 0 1000.1 0.1 87
2019-06-24 07:00:00 15.8 0 Calma 8 Noroeste 0 999.9 -0.6 93
2019-06-24 06:00:00 15.2 0 Calma -- -- 0 999.9 -0.8 95
2019-06-24 05:00:00 15.5 0 Calma 8 Nordeste 0 1000 -0.9 93
2019-06-24 04:00:00 16.5 2 Oeste 8 Oeste 0 1000.5 -0.1 93
2019-06-24 03:00:00 17.3 0 Calma 8 Sudoeste 0 1000.7 0.3 89
2019-06-24 02:00:00 18 0 Calma 8 Sudoeste 0 1000.9 0.8 85
2019-06-24 01:00:00 18.8 5 Oeste 9 Sudoeste 0 1000.6 1 83
2019-06-24 00:00:00 20.1 6 Sur 15 Sur 0 1000.4 1.4 79
2019-06-23 23:00:00 20.7 4 Nordeste 9 Sudeste 0 1000.1 2 78
2019-06-23 22:00:00 22 9 Sur 18 Sur 0 999.6 2 72
2019-06-23 21:00:00 23.8 14 Sur 26 Sur 0 999 1.6 61
2019-06-23 20:00:00 27.6 13 Sur 21 Sur 0 998.1 0.9 42
2019-06-23 19:00:00 29 15 Sur 24 Sur 0 997.6 0.6 41
2019-06-23 18:00:00 28.4 20 Sur 33 Sur 0 997.4 0.3 46
2019-06-23 17:00:00 29.8 19 Sur 32 Sudeste 0 997.2 -0.1 43
2019-06-23 16:00:00 32.1 22 Sur 39 Sur 0 997 -0.4 38
2019-06-23 15:00:00 32.2 27 Sur 35 Sur 0 997.1 -0.6 40
2019-06-23 14:00:00 33.2 24 Sur 37 Sur 0 997.3 -1 36
2019-06-23 13:00:00 33.7 21 Sur 33 Sur 0 997.4 -1.5 28
2019-06-23 12:00:00 31.6 17 Sur 32 Sur 0 997.7 -1.4 30
2019-06-23 11:00:00 27.3 10 Sudoeste 17 Sudoeste 0 998.3 -0.5 50
2019-06-23 10:00:00 23.7 10 Sudoeste 15 Sudoeste 0 998.9 0.3 62
2019-06-23 09:00:00 20.1 6 Sur 9 Sur 0 999.1 0.6 75
2019-06-23 08:00:00 17.5 3 Oeste 5 Oeste 0 998.8 0.3 88
2019-06-23 07:00:00 15.9 0 Calma 8 Oeste 0 998.6 -0.1 93
2019-06-23 06:00:00 14.5 6 Oeste 9 Oeste 0 998.5 -0.7 96
2019-06-23 05:00:00 14.6 2 Sudoeste 9 Nordeste 0 998.5 -0.8 94
2019-06-23 04:00:00 15 0 Calma 9 Oeste 0 998.7 -0.9 94
2019-06-23 03:00:00 15.3 4 Sudoeste 11 Oeste 0 999.2 -0.5 93
2019-06-23 02:00:00 16.4 0 Calma -- -- 0 999.3 -0.5 90
2019-06-23 01:00:00 17.4 0 Calma 8 Sudoeste 0 999.6 0 87
2019-06-23 00:00:00 18.6 5 Sur 9 Sudeste 0 999.7 0.7 85
2019-06-22 23:00:00 19.5 5 Sudoeste 11 Sur 0 999.8 0.8 79
2019-06-22 22:00:00 20.4 9 Sudoeste 21 Sur 0 999.6 0.8 74
2019-06-22 21:00:00 22.3 17 Sur 28 Sur 0 999 0.1 64
2019-06-22 20:00:00 24.5 20 Sur 28 Sur 0 999 -0.2 57
2019-06-22 19:00:00 25.8 16 Sur 26 Sur 0 998.8 -0.5 53
2019-06-22 18:00:00 26.4 16 Sur 26 Sur 0 998.9 -0.6 52
2019-06-22 17:00:00 26 16 Sur 30 Sur 0 999.2 -0.5 53
2019-06-22 16:00:00 26.3 21 Sudeste 35 Sudeste 0 999.3 -0.5 54
2019-06-22 15:00:00 26.5 17 Sudeste 30 Este 0 999.5 -0.4 54
2019-06-22 14:00:00 27.1 21 Sudeste 32 Sudeste 0 999.7 -0.4 54
2019-06-22 13:00:00 28.1 19 Sudeste 32 Sudeste 0 999.8 -0.5 51
2019-06-22 12:00:00 27.3 13 Sudoeste 22 Sudoeste 0 999.9 -0.5 47
2019-06-22 11:00:00 25.8 8 Sudeste 15 Sur 0 1000.1 -0.5 52
2019-06-22 10:00:00 23.5 5 Sur 13 Sudoeste 0 1000.3 0 62
2019-06-22 09:00:00 22 0 Calma 11 Nordeste 0 1000.4 0.4 64
2019-06-22 08:00:00 19.2 0 Calma 8 Nordeste 0 1000.6 0.4 70
2019-06-22 07:00:00 15.2 0 Calma 5 Noroeste 0 1000.3 -0.3 86
2019-06-22 06:00:00 14.9 0 Calma 5 Sur 0 1000 -0.6 85
2019-06-22 05:00:00 16.5 0 Calma 9 Norte 0 1000.2 -0.5 78
2019-06-22 04:00:00 16.7 5 Norte 13 Norte 0 1000.6 0.1 77
2019-06-22 03:00:00 16 7 Norte 11 Norte 0 1000.6 0.4 81
2019-06-22 02:00:00 16.5 6 Norte 11 Norte 0 1000.7 0.8 81
2019-06-22 01:00:00 17.2 8 Nordeste 11 Nordeste 0 1000.5 1 90
2019-06-22 00:00:00 18.6 4 Oeste 8 Noroeste 0 1000.2 1.2 86
2019-06-21 23:00:00 20 5 Sudoeste 9 Sudoeste 0 999.9 1.4 80
2019-06-21 22:00:00 21.1 3 Sudoeste 15 Sudoeste 0 999.5 1.2 76
2019-06-21 21:00:00 23.6 10 Sudoeste 17 Sudoeste 0 999 1 67
2019-06-21 20:00:00 24.6 12 Sudoeste 22 Sudoeste 0 998.5 0.6 62
2019-06-21 19:00:00 25.6 17 Sur 28 Sur 0 998.3 0.3 57
2019-06-21 18:00:00 26.8 19 Sur 32 Sur 0 998 -0.2 50
2019-06-21 17:00:00 28.4 2 Nordeste 18 Nordeste 0 997.9 -0.5 40
2019-06-21 16:00:00 27.2 13 Norte 32 Norte 0 998 -0.8 43
2019-06-21 15:00:00 29.6 8 Este 28 Nordeste 0 998.2 -0.6 35
2019-06-21 14:00:00 28.1 10 Nordeste 32 Nordeste 0 998.4 -0.4 40
2019-06-21 13:00:00 28.2 14 Norte 28 Norte 0 998.8 0.2 40
2019-06-21 12:00:00 28.3 15 Nordeste 30 Nordeste 0 998.8 0 40
2019-06-21 11:00:00 26.8 15 Nordeste 26 Norte 0 998.8 0.2 45
2019-06-21 10:00:00 24.4 15 Nordeste 28 Nordeste 0 998.6 -0.3 55
2019-06-21 09:00:00 22.4 12 Norte 18 Noroeste 0 998.8 0 64
2019-06-21 08:00:00 19.4 7 Norte 13 Norte 0 998.6 0 87
2019-06-21 07:00:00 16.3 10 Norte 13 Norte 0 998.9 0.3 97
2019-06-21 06:00:00 16 5 Nordeste 9 Este 0 998.8 0.5 95
2019-06-21 05:00:00 16.8 6 Oeste 11 Oeste 0 998.6 0.6 95
2019-06-21 04:00:00 16.9 8 Sudoeste 17 Sudoeste 0 998.6 0.4 92
2019-06-21 03:00:00 16.6 10 Sudoeste 13 Sudoeste 0 998.3 -0.2 82
2019-06-21 02:00:00 17.8 0 Calma 13 Norte 0 998 -0.7 78
2019-06-21 01:00:00 19 4 Norte 9 Norte 0 998.2 0.4 74
2019-06-21 00:00:00 20 7 Norte 15 Norte 0 998.5 0.7 70
2019-06-20 23:00:00 21 7 Norte 13 Nordeste 0 998.7 1.1 67
2019-06-20 22:00:00 21.8 7 Este 13 Nordeste 0 997.8 0.4 61
2019-06-20 21:00:00 23.5 8 Norte 22 Nordeste 0 997.8 0.6 52
2019-06-20 20:00:00 25.2 15 Nordeste 21 Norte 0 997.6 0.8 46
2019-06-20 19:00:00 26.9 14 Este 30 Sudeste 0 997.4 0.2 44
2019-06-20 18:00:00 27.8 16 Sudeste 33 Este 0 997.2 -0.3 43
2019-06-20 17:00:00 29.4 21 Este 33 Este 0 996.8 -0.7 36
2019-06-20 16:00:00 30.2 16 Sudeste 30 Sur 0 997.2 -0.9 37
2019-06-20 15:00:00 30.2 13 Este 30 Nordeste 0 997.5 -0.9 40
2019-06-20 14:00:00 29.5 24 Nordeste 33 Norte 0 997.5 -1.1 41
2019-06-20 13:00:00 28.8 15 Nordeste 32 Nordeste 0 998.1 -0.7 44
2019-06-20 12:00:00 28 13 Nordeste 24 Nordeste 0 998.4 -0.3 44
2019-06-20 11:00:00 26.7 9 Este 21 Nordeste 0 998.6 0.2 50
2019-06-20 10:00:00 24.9 12 Nordeste 24 Nordeste 0 998.8 0.6 58
2019-06-20 09:00:00 23 6 Nordeste 18 Nordeste 0 998.7 0.8 67
2019-06-20 08:00:00 19.8 0 Calma 9 Noroeste 0 998.4 0.9 82
2019-06-20 07:00:00 17.8 5 Norte 13 Norte 0 998.2 0.8 90
2019-06-20 06:00:00 17.3 6 Norte 9 Norte 0 997.9 0.5 94
2019-06-20 05:00:00 17.8 4 Noroeste 8 Noroeste 0 997.5 0 95
2019-06-20 04:00:00 17.4 0 Calma 5 Oeste 0 997.4 -0.2 94
2019-06-20 03:00:00 17.4 5 Oeste 8 Oeste 0 997.4 -0.3 95
2019-06-20 02:00:00 17.8 0 Calma 5 Este 0 997.5 -0.2 93
2019-06-20 01:00:00 17.7 4 Nordeste 5 Nordeste 0 997.6 0.3 92
2019-06-20 00:00:00 18.4 6 Oeste -- -- 0 997.7 0.9 91
2019-06-19 23:00:00 19.3 6 Sudoeste 13 Sur 0 997.7 1.2 89
2019-06-19 22:00:00 20.2 8 Sudoeste 15 Sur 0 997.3 1.3 84
2019-06-19 21:00:00 22.5 11 Sur 21 Sur 0 996.8 0.9 72
2019-06-19 20:00:00 24.4 13 Sur 22 Sur 0 996.5 0.5 64
2019-06-19 19:00:00 25.8 17 Sur 30 Sur 0 996 -0.4 58
2019-06-19 18:00:00 26.6 23 Sur 37 Sur 0 995.9 -0.7 50
2019-06-19 17:00:00 27.6 27 Sur 37 Sur 0 996 -0.6 48
2019-06-19 16:00:00 27.8 26 Sur 39 Sur 0 996.4 -0.5 49
2019-06-19 15:00:00 29.1 25 Sur 35 Sur 0 996.6 -0.7 43
2019-06-19 14:00:00 31.3 18 Sur 26 Sur 0 996.6 -0.7 32
2019-06-19 13:00:00 30.5 7 Sur 15 Sur 0 996.9 -0.6 24
2019-06-19 12:00:00 28.4 6 Este 13 Este 0 997.3 0.3 27
2019-06-19 11:00:00 26.4 7 Nordeste 17 Este 0 997.3 1 33
2019-06-19 10:00:00 23.8 13 Nordeste 18 Norte 0 997.5 1.6 44
2019-06-19 09:00:00 20.8 2 Este 8 Sur 0 997 1.3 51
2019-06-19 08:00:00 18.2 7 Sur 13 Sur 0 996.3 0.6 59
2019-06-19 07:00:00 18.1 2 Sur 13 Sudoeste 0 995.9 -0.2 61
2019-06-19 06:00:00 15.1 6 Norte 18 Sudoeste 0 995.7 -0.9 69
2019-06-19 05:00:00 13.9 3 Sudoeste 11 Sudoeste 0 995.7 -1.4 75
2019-06-19 04:00:00 15 5 Sur 11 Sur 0 996.1 -1.4 72
2019-06-19 03:00:00 15.2 0 Calma 9 Sur 0 996.6 -1.4 74
2019-06-19 02:00:00 16.5 0 Calma 9 Sudoeste 0 997.1 -0.8 70
2019-06-19 01:00:00 17.2 0 Calma 21 Sur 0 997.5 0.1 71
2019-06-19 00:00:00 18.1 15 Sur 21 Sur 0 998 1.3 74
2019-06-18 23:00:00 19.6 9 Sudeste 18 Sudeste 0 997.9 1.6 70
2019-06-18 22:00:00 21.4 10 Sur 18 Sudeste 0 997.4 1.3 57
2019-06-18 21:00:00 24.4 11 Sur 39 Sur 0 996.7 0.7 35
2019-06-18 20:00:00 26.1 27 Sudoeste 50 Sur 0 996.3 -0.1 29
2019-06-18 19:00:00 28.9 37 Sur 55 Sudoeste 0 996.1 -0.6 24
2019-06-18 18:00:00 29.7 39 Sur 55 Sur 0 996 -0.9 23
2019-06-18 17:00:00 30.2 39 Sur 55 Sur 0 996.4 -0.8 25
2019-06-18 16:00:00 30.3 41 Sur 55 Sur 0 996.7 -0.9 25
2019-06-18 15:00:00 30.6 35 Sur 55 Sur 0 996.9 -1.1 28
2019-06-18 14:00:00 30.6 36 Sur 48 Sur 0 997.2 -1 26
2019-06-18 13:00:00 31.8 31 Sur 46 Sudoeste 0 997.6 -1 22
2019-06-18 12:00:00 31.2 26 Sur 37 Sur 0 998 -0.6 19
2019-06-18 11:00:00 28.5 13 Sudoeste 24 Sudoeste 0 998.2 -0.1 30
2019-06-18 10:00:00 24.4 5 Sur 13 Sur 0 998.6 0.2 42
2019-06-18 09:00:00 19.1 4 Sur 9 Sur 0 998.6 0.3 64
2019-06-18 08:00:00 15.2 0 Calma 8 Sudeste 0 998.3 -0.1 86
2019-06-18 07:00:00 14.4 0 Calma 8 Sudoeste 0 998.4 -0.5 92
2019-06-18 06:00:00 12.1 5 Sudoeste 9 Oeste 0 998.3 -0.7 95
2019-06-18 05:00:00 12.7 6 Sudoeste 11 Oeste 0 998.4 -1.1 95
2019-06-18 04:00:00 13 9 Oeste 11 Oeste 0 998.9 -1 93
2019-06-18 03:00:00 14.4 0 Calma 8 Norte 0 999 -1.1 92
2019-06-18 02:00:00 15 2 Sudoeste 8 Sudoeste 0 999.5 -0.6 91
2019-06-18 01:00:00 15.5 9 Oeste 9 Oeste 0 999.9 0.2 91
2019-06-18 00:00:00 16.7 0 Calma 8 Sudoeste 0 1000.1 0.7 85
2019-06-17 23:00:00 18.4 5 Sudoeste 15 Sur 0 1000.1 1 81
2019-06-17 22:00:00 19.9 13 Sur 21 Sur 0 999.7 0.7 74
2019-06-17 21:00:00 22.5 13 Sur 21 Sudeste 0 999.4 0.4 65
2019-06-17 20:00:00 25 14 Sur 24 Sur 0 999.1 -0.2 56
2019-06-17 19:00:00 26.7 16 Sur 30 Sur 0 999 -0.3 42
2019-06-17 18:00:00 28 23 Sur 32 Sur 0 999 -0.9 36
2019-06-17 17:00:00 28.8 23 Sur 35 Sur 0 999.3 -0.7 33
2019-06-17 16:00:00 30.8 23 Sur 33 Sur 0 999.3 -0.9 26
2019-06-17 15:00:00 30.1 21 Sur 32 Sudoeste 0 999.9 -0.6 32
2019-06-17 14:00:00 30.8 18 Sur 28 Sur 0 1000 -0.8 30
2019-06-17 13:00:00 30 13 Sur 24 Sur 0 1000.2 -1.2 32
2019-06-17 12:00:00 28.5 5 Sur 15 Sur 0 1000.5 -1.3 36
2019-06-17 11:00:00 26.9 5 Sudeste 18 Sudeste 0 1000.8 -0.8 40
2019-06-17 10:00:00 24.8 4 Sudeste 13 Sudeste 0 1001.4 0.1 48
2019-06-17 09:00:00 20.5 4 Sudoeste 9 Sur 0 1001.8 0.7 70
2019-06-17 08:00:00 17.1 5 Sudoeste 8 Sudoeste 0 1001.6 0.9 81
2019-06-17 07:00:00 13.4 4 Nordeste 9 Nordeste 0 1001.3 0.5 94
2019-06-17 06:00:00 12.1 2 Nordeste 8 Nordeste 0 1001.1 0.3 95
2019-06-17 05:00:00 12.8 5 Nordeste 8 Nordeste 0 1000.7 -0.4 93
2019-06-17 04:00:00 13.8 3 Noroeste 5 Oeste 0 1000.8 -0.7 90
2019-06-17 03:00:00 13.7 0 Calma -- -- 0 1000.8 -1 89
2019-06-17 02:00:00 14 0 Calma 9 Nordeste 0 1001.1 -0.7 88
2019-06-17 01:00:00 15.2 3 Norte 8 Oeste 0 1001.5 0 86
2019-06-17 00:00:00 16 5 Sudoeste -- -- 0 1001.8 0.3 82
2019-06-16 23:00:00 17.4 0 Calma 5 Sudeste 0 1001.8 0.4 77
2019-06-16 22:00:00 18.6 4 Sudoeste 15 Sur 0 1001.5 0 72
2019-06-16 21:00:00 20.3 11 Sur 21 Sur 0 1001.5 0.2 67
2019-06-16 20:00:00 22.1 14 Sur 28 Sur 0 1001.4 -0.1 60
2019-06-16 19:00:00 23.3 16 Sur 30 Sur 0 1001.5 -0.6 55
2019-06-16 18:00:00 25.8 22 Sur 32 Sur 0 1001.3 -1.5 44
2019-06-16 17:00:00 26.4 19 Sur 32 Sur 0 1001.5 -1.4 45
2019-06-16 16:00:00 26.5 23 Sur 33 Sur 0 1002.1 -1.4 43
2019-06-16 15:00:00 26.6 24 Sur 37 Sur 0 1002.8 -1.2 43
2019-06-16 14:00:00 27.6 17 Sur 32 Sudoeste 0 1002.9 -1.6 40
2019-06-16 13:00:00 26.2 9 Sur 18 Sur 0 1003.5 -1.3 42
2019-06-16 12:00:00 25.1 5 Sur 15 Sur 0 1004 -0.9 44
2019-06-16 11:00:00 23.9 7 Sudeste 13 Sudeste 0 1004.5 0 43
2019-06-16 10:00:00 21.5 11 Nordeste 17 Nordeste 0 1004.8 0.8 51
2019-06-16 09:00:00 19.8 0 Calma 8 Nordeste 0 1004.9 0.9 65
2019-06-16 08:00:00 16.2 0 Calma 4 Nordeste 0 1004.5 0.4 79
2019-06-16 07:00:00 11.8 5 Nordeste 5 Nordeste 0 1004 0 95
2019-06-16 06:00:00 11.3 0 Calma 8 Oeste 0 1004 -0.3 94
2019-06-16 05:00:00 11.8 3 Sur 5 Sur 0 1004.1 -0.6 92
2019-06-16 04:00:00 12.4 0 Calma 5 Norte 0 1004 -0.6 90
2019-06-16 03:00:00 12.9 0 Calma 5 Noroeste 0 1004.3 -0.1 87
2019-06-16 02:00:00 13.9 4 Norte 8 Noroeste 0 1004.7 0.6 82
2019-06-16 01:00:00 15.6 5 Noroeste 9 Noroeste 0 1004.6 1.4 75
2019-06-16 00:00:00 15.5 6 Noroeste 15 Este 0 1004.4 1.9 75
2019-06-15 23:00:00 16.2 8 Este 11 Este 0 1004.1 2.3 74
2019-06-15 22:00:00 18.8 7 Este 13 Sudoeste 0 1003.2 1.9 65
2019-06-15 21:00:00 20.4 9 Sudoeste 17 Sudoeste 0 1002.5 1.6 71
2019-06-15 20:00:00 21.8 10 Sudoeste 17 Sur 0 1001.8 1.2 65
2019-06-15 19:00:00 23 11 Sur 21 Sur 0 1001.3 1.1 59
2019-06-15 18:00:00 23.7 13 Sudeste 28 Sur 0 1000.9 0.8 57
2019-06-15 17:00:00 25 17 Sur 28 Sur 0 1000.6 0.1 55
2019-06-15 16:00:00 26.1 15 Sudeste 28 Sudeste 0 1000.2 -0.5 54
2019-06-15 15:00:00 26 13 Sudeste 26 Este 0 1000.1 -0.6 53
2019-06-15 14:00:00 26.2 12 Este 28 Este 0 1000.5 -0.2 52
2019-06-15 13:00:00 24.6 10 Este 24 Este 0 1000.7 0 57
2019-06-15 12:00:00 23.4 10 Nordeste 24 Norte 0 1000.7 0.7 62
2019-06-15 11:00:00 22 14 Nordeste 26 Nordeste 0 1000.7 0.8 67
2019-06-15 10:00:00 21.9 8 Nordeste 18 Nordeste 0 1000.7 1.5 65
2019-06-15 09:00:00 20.3 11 Nordeste 18 Nordeste 0 1000 1.3 71
2019-06-15 08:00:00 18.6 6 Nordeste 9 Nordeste 0 999.9 1.4 81
2019-06-15 07:00:00 16.6 6 Norte 13 Norte 0 999.2 0.9 83
2019-06-15 06:00:00 15.8 12 Norte 15 Norte 0 998.7 0.4 86
2019-06-15 05:00:00 15.1 3 Noroeste 18 Norte 0 998.5 0.3 87
2019-06-15 04:00:00 13.7 6 Norte 8 Nordeste 0 998.3 0.1 90
2019-06-15 03:00:00 15.5 4 Sur 13 Norte 0 998.3 0.3 83
2019-06-15 02:00:00 14.9 4 Nordeste 8 Nordeste 0 998.2 0.8 87
2019-06-15 01:00:00 16.3 0 Calma 8 Noroeste 0 998.2 2.1 83
2019-06-15 00:00:00 17.5 0 Calma 11 Sudeste 0 998 2.9 81
2019-06-14 23:00:00 18.3 5 Nordeste 9 Nordeste 0 997.4 3.3 79
2019-06-14 22:00:00 20.5 6 Sudeste 17 Sudeste 0 996.1 3.1 69
2019-06-14 21:00:00 22.7 9 Este 18 Este 0 995.1 2.7 61
2019-06-14 20:00:00 25.2 10 Sudeste 22 Sudeste 0 994.1 1.3 54
2019-06-14 19:00:00 26.1 18 Sur 28 Sur 0 993 0.1 51
2019-06-14 18:00:00 26.5 20 Sur 33 Sur 0 992.4 1.9 49
2019-06-14 17:00:00 27.6 19 Sur 28 Sur 0 992.8 -0.8 42
2019-06-14 16:00:00 26.6 13 Nordeste 46 Nordeste 0 992.9 -0.7 42
2019-06-14 15:00:00 23.9 35 Nordeste 46 Nordeste 0 990.5 -1.6 47
2019-06-14 14:00:00 24.1 15 Nordeste 30 Norte 0 993.6 -0.6 49
2019-06-14 13:00:00 24.5 19 Nordeste 48 Nordeste 0 993.6 -0.9 47
2019-06-14 12:00:00 21.5 33 Nordeste 55 Nordeste 0 992.1 -1.8 56
2019-06-14 11:00:00 22.7 23 Nordeste 48 Nordeste 0 994.2 0.7 53
2019-06-14 10:00:00 21.5 29 Norte 45 Norte 0 994.5 0.1 56
2019-06-14 09:00:00 19.8 26 Norte 42 Nordeste 0 993.9 -0.7 59
2019-06-14 08:00:00 17.8 26 Norte 35 Nordeste 0 993.5 -1.6 62
2019-06-14 07:00:00 15.9 18 Norte 30 Norte 0 994.4 -0.8 58
2019-06-14 06:00:00 15.4 20 Norte 30 Norte 0 994.6 -1.8 50
2019-06-14 05:00:00 13.2 15 Nordeste 28 Norte 0 995.1 -2.2 77
2019-06-14 04:00:00 13.3 13 Nordeste 18 Nordeste 0 995.2 -3.1 71
2019-06-14 03:00:00 14.8 0 Calma 15 Norte 0 996.4 -1.8 64
2019-06-14 02:00:00 14.2 9 Norte 15 Norte 0 997.3 -1 65
2019-06-14 01:00:00 14.5 12 Norte 15 Norte 0 998.3 0.9 65
2019-06-14 00:00:00 15 5 Norte 15 Norte 0 998.2 0.9 70
2019-06-13 23:00:00 15.9 6 Nordeste 13 Norte 0 998.3 0.7 66
2019-06-13 22:00:00 17.7 9 Norte 13 Norte 0 997.4 0 50
2019-06-13 21:00:00 19.4 0 Calma 15 Sudeste 0 997.3 -0.2 45
2019-06-13 20:00:00 20.9 10 Sudeste 21 Sudeste 0 997.6 -0.1 37
2019-06-13 19:00:00 22.7 14 Sudeste 26 Sudeste 0 997.4 -1 25
2019-06-13 18:00:00 23.4 18 Sudeste 26 Sudeste 0 997.5 -0.2 23
2019-06-13 17:00:00 21.9 17 Sudeste 32 Sur 0 997.7 -0.7 36
2019-06-13 16:00:00 24.8 19 Sudeste 32 Sudeste 0 998.4 -0.4 32
2019-06-13 15:00:00 25.5 15 Sudeste 26 Sudeste 0 997.7 -1.4 33
2019-06-13 14:00:00 25.1 13 Sur 24 Sur 0 998.4 -1.2 36
2019-06-13 13:00:00 24.1 10 Sur 21 Sur 0 998.8 -0.7 37
2019-06-13 12:00:00 23.3 9 Sur 17 Sur 0 999.1 -0.5 37
2019-06-13 11:00:00 21.2 9 Sur 15 Sur 0 999.6 0.3 54
2019-06-13 10:00:00 18.4 6 Sur 13 Sur 0 999.5 0.2 67
2019-06-13 09:00:00 15.7 4 Sur 9 Sur 0 999.6 0.3 80
2019-06-13 08:00:00 13.3 0 Calma 8 Nordeste 0 999.3 0.2 89
2019-06-13 07:00:00 9.8 5 Norte 8 Norte 0 999.3 0.1 97
2019-06-13 06:00:00 8.8 0 Calma -- -- 0 999.3 -0.1 98
2019-06-13 05:00:00 9.2 4 Sur 9 Oeste 0 999.1 -0.7 95
2019-06-13 04:00:00 10.1 9 Noroeste 11 Oeste 0 999.2 -0.9 97
2019-06-13 03:00:00 10.4 2 Sur 8 Oeste 0 999.4 -0.8 96
2019-06-13 02:00:00 11.6 7 Norte 9 Norte 0 999.8 -0.2 95
2019-06-13 01:00:00 11.5 4 Este 9 Oeste 0 1000.1 0.8 94
2019-06-13 00:00:00 13 4 Sudoeste 8 Sudoeste 0 1000.2 1.6 91
2019-06-12 23:00:00 14.5 6 Sudeste 17 Sur 0 1000 2 87
2019-06-12 22:00:00 15.3 12 Sur 22 Sur 0 999.3 1.8 81
2019-06-12 21:00:00 16.7 13 Sur 33 Sur 0 998.6 1.1 72
2019-06-12 20:00:00 19.1 21 Sur 35 Sur 0 998 0.2 61
2019-06-12 19:00:00 19.9 26 Sur 41 Sur 0 997.5 -0.4 59
2019-06-12 18:00:00 20.8 30 Sur 42 Sur 0 997.5 -0.7 57
2019-06-12 17:00:00 21.5 27 Sur 37 Sur 0 997.8 -0.9 53
2019-06-12 16:00:00 21.6 24 Sur 39 Sur 0 997.9 -1.1 52
2019-06-12 15:00:00 21 25 Sur 41 Sur 0 998.2 -1.2 54
2019-06-12 14:00:00 20 18 Sur 33 Sudoeste 0 998.7 -1 53
2019-06-12 13:00:00 20.6 14 Sur 32 Sur 0 999 -0.8 52
2019-06-12 12:00:00 18.8 11 Sur 21 Sur 0 999.4 -0.2 58
2019-06-12 11:00:00 17.1 5 Sudeste 11 Sur 0 999.7 0.6 63
2019-06-12 10:00:00 14.4 0 Calma 9 Sur 0 999.8 1.3 84
2019-06-12 09:00:00 12.2 2 Sur 8 Sur 0 999.6 1.5 99
2019-06-12 08:00:00 9.3 0 Calma 8 Oeste 0 999.1 1.3 100
2019-06-12 07:00:00 8.5 0 Calma 9 Nordeste 0 998.5 0.5 100
2019-06-12 06:00:00 8.7 6 Nordeste 9 Nordeste 0 998.1 -0.1 100
2019-06-12 05:00:00 9.2 0 Calma 4 Sudoeste 0 997.8 -0.5 100
2019-06-12 04:00:00 9.6 0 Calma 9 Sur 0 998 -0.6 100
2019-06-12 03:00:00 9.7 2 Sudeste 8 Norte 0 998.2 -0.1 100
2019-06-12 02:00:00 9.9 3 Sudeste 9 Sudoeste 0 998.3 -0.2 99
2019-06-12 01:00:00 10.1 5 Sudoeste 11 Sudoeste 0 998.6 0.1 98
2019-06-12 00:00:00 11.2 0 Calma 11 Noroeste 0 998.3 0.5 98
2019-06-11 23:00:00 11.9 3 Sudoeste 11 Sudoeste 0 998.5 0.7 98
2019-06-11 22:00:00 12.1 4 Sudoeste 8 Sudoeste 0.4 998.5 1.6 98
2019-06-11 21:00:00 12.4 4 Sudeste 8 Sudeste 0.9 997.8 0.6 96
2019-06-11 20:00:00 12.4 0 Calma 8 Norte 0.1 997.8 0 94
2019-06-11 19:00:00 12.2 6 Norte 13 Norte 1.2 996.9 -0.8 95
2019-06-11 18:00:00 12 7 Norte 18 Norte 1.1 997.2 -0.1 95
2019-06-11 17:00:00 11.9 8 Nordeste 22 Nordeste 2.1 997.8 0.5 95
2019-06-11 16:00:00 12 13 Nordeste 28 Nordeste 1.3 997.7 1.1 94
2019-06-11 15:00:00 12.3 16 Nordeste 28 Nordeste 2.2 997.3 0.4 95
2019-06-11 14:00:00 12.1 19 Nordeste 30 Norte 0.3 997.3 1.1 94
2019-06-11 13:00:00 12.9 16 Nordeste 26 Nordeste 1.4 996.6 0.5 96
2019-06-11 12:00:00 13.8 16 Nordeste 22 Norte 0.6 996.9 1.3 94
2019-06-11 11:00:00 14.5 3 Nordeste 9 Sudoeste 0.7 996.2 0.8 90
2019-06-11 10:00:00 14.8 6 Sudoeste 9 Oeste 0.1 996.1 0.6 93
2019-06-11 09:00:00 14.4 4 Sudeste 8 Sudeste 0 995.6 -0.1 93
2019-06-11 08:00:00 14 4 Este 9 Este 0 995.4 -0.6 95
2019-06-11 07:00:00 13.6 5 Noroeste 9 Noroeste 0.3 995.5 -0.7 95
2019-06-11 06:00:00 14 3 Oeste 8 Oeste 0.2 995.7 -1.2 92
2019-06-11 05:00:00 13.9 3 Noroeste 11 Sudoeste 0.8 996 -1.6 92
2019-06-11 04:00:00 14.4 6 Nordeste 9 Noroeste 0.3 996.2 -1.6 85
2019-06-11 03:00:00 15.5 3 Norte 8 Norte 0 996.9 -1 68
2019-06-11 02:00:00 15.4 0 Calma 8 Oeste 0 997.6 -0.1 71
2019-06-11 01:00:00 15.2 0 Calma 4 Noroeste 0 997.8 0.7 68
2019-06-11 00:00:00 15.9 0 Calma 13 Este 0 997.9 1.5 64
2019-06-10 23:00:00 16 9 Nordeste 15 Nordeste 0 997.7 1.8 66
2019-06-10 22:00:00 17.4 11 Nordeste 21 Nordeste 0 997.1 1.7 61
2019-06-10 21:00:00 20.4 10 Sur 21 Sur 0 996.4 1.4 54
2019-06-10 20:00:00 21.5 12 Sudeste 22 Sur 0 995.9 1 53
2019-06-10 19:00:00 23.8 16 Sudeste 37 Sur 0 995.4 0.2 45
2019-06-10 18:00:00 25.4 26 Sur 41 Sur 0 995 -0.4 34
2019-06-10 17:00:00 26.2 30 Sur 42 Sur 0 994.9 -0.6 36
2019-06-10 16:00:00 27.2 26 Sur 41 Sur 0 995.2 -0.5 37
2019-06-10 15:00:00 28.4 30 Sur 41 Sur 0 995.4 -0.8 35
2019-06-10 14:00:00 28.9 23 Sur 35 Sur 0 995.5 -1.2 35
2019-06-10 13:00:00 28.7 9 Sur 22 Sudoeste 0 995.7 -1.2 33
2019-06-10 12:00:00 27.1 7 Nordeste 18 Este 0 996.2 -0.9 37
2019-06-10 11:00:00 24.9 12 Nordeste 22 Nordeste 0 996.7 -0.3 46
2019-06-10 10:00:00 22.7 15 Nordeste 21 Nordeste 0 996.9 -0.1 55
2019-06-10 09:00:00 21.3 3 Este 15 Noroeste 0 997.1 0.3 62
2019-06-10 08:00:00 17.1 5 Noroeste 13 Oeste 0 997 0.4 77
2019-06-10 07:00:00 15.7 7 Noroeste 9 Noroeste 0 997 0.9 84
2019-06-10 06:00:00 15.1 3 Norte 8 Oeste 0 996.8 0.6 87
2019-06-10 05:00:00 15.3 5 Sur 13 Sudoeste 0 996.6 -0.5 88
2019-06-10 04:00:00 15.8 7 Oeste 17 Sudoeste 0 996.1 -1.8 85
2019-06-10 03:00:00 17.2 6 Este 15 Norte 0 996.2 -1.9 80
2019-06-10 02:00:00 18 4 Sudeste 18 Norte 0 997.1 -1.5 78
2019-06-10 01:00:00 18.5 9 Norte 18 Norte 0 997.9 0.2 72
2019-06-10 00:00:00 18.4 5 Norte 15 Nordeste 0 998.1 0.6 68
2019-06-09 23:00:00 18.5 5 Noroeste 11 Norte 0 998.6 1.5 66
2019-06-09 22:00:00 19.2 5 Nordeste 18 Norte 0 997.7 0.3 64
2019-06-09 21:00:00 20 4 Norte 18 Nordeste 0 997.5 0.8 61
2019-06-09 20:00:00 20.3 13 Nordeste 28 Nordeste 0 997.1 0.7 61
2019-06-09 19:00:00 20.9 18 Nordeste 35 Nordeste 0 997.4 0.5 63
2019-06-09 18:00:00 22 17 Nordeste 35 Nordeste 0 996.7 -1.3 61
2019-06-09 17:00:00 23.3 24 Nordeste 35 Nordeste 0 996.4 -2.5 60
2019-06-09 16:00:00 24 23 Nordeste 35 Nordeste 0 996.9 -2.4 53
2019-06-09 15:00:00 25.1 22 Nordeste 33 Nordeste 0 998 -1.7 40
2019-06-09 14:00:00 25.3 21 Nordeste 33 Nordeste 0 998.9 -1.2 26
2019-06-09 13:00:00 26.2 21 Nordeste 32 Nordeste 0 999.3 -2.3 22
2019-06-09 12:00:00 24.5 22 Nordeste 33 Nordeste 0 999.7 -1.6 27
2019-06-09 11:00:00 22.5 16 Norte 28 Nordeste 0 1000.1 -0.2 32
2019-06-09 10:00:00 20.1 9 Norte 13 Nordeste 0 1001.6 1.4 37
2019-06-09 09:00:00 18.3 8 Nordeste 15 Nordeste 0 1001.3 1 45
2019-06-09 08:00:00 17.4 12 Nordeste 17 Nordeste 0 1000.3 -1.3 49
2019-06-09 07:00:00 15.7 10 Nordeste 13 Nordeste 0 1000.2 -2.4 52
2019-06-09 06:00:00 16.1 10 Norte 17 Norte 0 1000.3 -3.3 45
2019-06-09 05:00:00 14.1 7 Norte 9 Norte 0 1001.6 -2.6 55
2019-06-09 04:00:00 13.6 5 Nordeste 5 Nordeste 0 1002.6 -2 57
2019-06-09 03:00:00 14.9 0 Calma -- -- 0 1003.6 -1.4 63
2019-06-09 02:00:00 14.9 0 Calma 4 Sur 0 1004.2 -1.2 52
2019-06-09 01:00:00 15.6 3 Norte 5 Norte 0 1004.6 -0.8 49
2019-06-09 00:00:00 16.4 3 Nordeste 15 Noroeste 0 1005 -0.1 40
2019-06-08 23:00:00 18.1 8 Noroeste 15 Noroeste 0 1005.4 0.4 30
2019-06-08 22:00:00 19.1 9 Norte 13 Norte 0 1005.4 0.3 29
2019-06-08 21:00:00 20.9 7 Nordeste 24 Este 0 1005.1 -0.3 26
2019-06-08 20:00:00 23.9 14 Este 21 Nordeste 0 1005 -0.6 19
2019-06-08 19:00:00 24.9 10 Nordeste 28 Nordeste 0 1005.1 -1.1 20
2019-06-08 18:00:00 25.2 11 Este 28 Este 0 1005.4 -1.2 21
2019-06-08 17:00:00 25.9 14 Este 26 Este 0 1005.6 -1 22
2019-06-08 16:00:00 25.8 17 Este 30 Este 0 1006.2 -0.8 23
2019-06-08 15:00:00 25.9 15 Este 35 Este 0 1006.6 -0.7 26
2019-06-08 14:00:00 25.4 19 Este 32 Este 0 1006.6 -0.7 29
2019-06-08 13:00:00 25.4 9 Este 28 Este 0 1007 -0.3 30
2019-06-08 12:00:00 23.9 10 Este 35 Sudeste 0 1007.3 -0.1 32
2019-06-08 11:00:00 22.6 15 Este 37 Este 0 1007.3 -0.1 34
2019-06-08 10:00:00 20.2 21 Nordeste 32 Nordeste 0 1007.3 -0.1 45
2019-06-08 09:00:00 17.9 17 Norte 22 Norte 0 1007.4 0.4 54
2019-06-08 08:00:00 15.8 11 Nordeste 18 Norte 0 1007.4 0.5 60
2019-06-08 07:00:00 12.9 10 Norte 15 Noroeste 0 1007.4 1.1 68
2019-06-08 06:00:00 12.6 12 Norte 17 Norte 0 1007 1.1 68
2019-06-08 05:00:00 12.9 10 Norte 15 Norte 0 1006.9 1.2 68
2019-06-08 04:00:00 13.2 9 Norte 15 Norte 0 1006.3 0.7 68
2019-06-08 03:00:00 14.6 9 Norte 21 Norte 0 1005.9 0.7 64
2019-06-08 02:00:00 14.4 9 Noroeste 15 Norte 0 1005.7 1.2 65
2019-06-08 01:00:00 14.6 8 Noroeste 13 Norte 0 1005.6 2.4 65
2019-06-08 00:00:00 15.7 8 Noroeste 22 Nordeste 0 1005.2 3.1 62
2019-06-07 23:00:00 16.9 14 Nordeste 22 Nordeste 0 1004.5 3.6 59
2019-06-07 22:00:00 17.7 10 Este 24 Este 0 1003.2 -- 62
2019-06-07 21:00:00 19.8 11 Este 33 Este 0 1002.1 -- 59
2019-06-07 20:00:00 22.7 14 Este -- -- -- 1000.9 -- 48
2019-06-07 19:00:00 -- -- -- -- -- -- -- -- --
2019-06-07 18:00:00 -- -- -- -- -- -- -- -- --
2019-06-07 17:00:00 -- -- -- -- -- -- -- -- --
2019-06-07 16:00:00 -- -- -- -- -- -- -- -- --
2019-06-07 15:00:00 -- -- -- -- -- -- -- -- --
2019-06-07 14:00:00 -- -- -- -- -- -- -- -- --
2019-06-07 13:00:00 -- -- -- -- -- -- -- -- --
2019-06-07 12:00:00 -- -- -- -- -- -- -- -- --
2019-06-07 11:00:00 -- -- -- -- -- -- -- -- --
2019-06-07 10:00:00 -- -- -- -- -- -- -- -- --
2019-06-07 09:00:00 -- -- -- -- -- -- -- -- --
2019-06-07 08:00:00 -- -- -- -- -- -- -- -- --
2019-06-07 07:00:00 -- -- -- -- -- -- -- -- --
2019-06-07 06:00:00 -- -- -- -- -- -- -- -- --
2019-06-07 05:00:00 -- -- -- -- -- -- -- -- --
2019-06-07 04:00:00 13.7 5 Oeste 8 Oeste 0 996.4 -0.9 91
2019-06-07 03:00:00 14.7 0 Calma 9 Oeste 0 996.6 -1 90
2019-06-07 02:00:00 15.3 2 Oeste 9 Oeste 0 997 -0.8 92
2019-06-07 01:00:00 14.9 5 Sur 13 Sur 0 997.3 -0.3 94
2019-06-07 00:00:00 14.3 10 Sudoeste 22 Sur 0 997.6 0 93
2019-06-06 23:00:00 15.6 19 Sur 26 Sur 0 997.8 0.6 90
2019-06-06 22:00:00 16 18 Sur 28 Sur 0 997.6 0.5 85
2019-06-06 21:00:00 17.4 23 Sur 37 Sur 0 997.6 0.2 77
2019-06-06 20:00:00 19.1 27 Sur 42 Sur 0 997.2 -0.5 70
2019-06-06 19:00:00 20.4 28 Sur 42 Sur 0 997.1 -0.9 63
2019-06-06 18:00:00 20.8 33 Sur 50 Sur 0 997.4 -0.7 61
2019-06-06 17:00:00 21.9 35 Sur 52 Sur 0 997.7 -0.8 58
2019-06-06 16:00:00 22.7 38 Sur 52 Sur 0 998 -0.8 56
2019-06-06 15:00:00 23.1 40 Sur 55 Sudoeste 0 998.1 -0.9 54
2019-06-06 14:00:00 22.6 32 Sur 52 Sur 0 998.5 -0.3 57
2019-06-06 13:00:00 22.8 34 Sur 48 Sur 0 998.8 -0.4 56
2019-06-06 12:00:00 22.8 28 Sur 39 Sur 0 999 -0.2 56
2019-06-06 11:00:00 21.8 18 Sur 28 Sur 0 998.8 -0.1 51
2019-06-06 10:00:00 19.6 6 Sur 13 Sur 0 999.2 0.6 55
2019-06-06 09:00:00 16.9 5 Sur 9 Sudoeste 0 999.2 1 67
2019-06-06 08:00:00 13.5 0 Calma 5 Sudeste 0 998.9 1 75
2019-06-06 07:00:00 9.3 0 Calma -- -- 0 998.6 1 90
2019-06-06 06:00:00 8.6 0 Calma 11 Nordeste 0 998.2 0.8 89
2019-06-06 05:00:00 9 2 Este 5 Sudeste 0 997.9 0.6 88
2019-06-06 04:00:00 9.2 0 Calma 5 Este 0 997.6 0.3 88
2019-06-06 03:00:00 10 3 Nordeste 9 Noroeste 0 997.4 0.4 85
2019-06-06 02:00:00 11.9 5 Oeste 9 Oeste 0 997.3 0.9 78
2019-06-06 01:00:00 11.7 6 Oeste 8 Oeste 0 997.3 1.8 78
2019-06-06 00:00:00 12.6 3 Oeste 5 Oeste 0 997 2.5 74
2019-06-05 23:00:00 13.6 0 Calma 8 Norte 0 996.4 3.2 72
2019-06-05 22:00:00 14.5 0 Calma 15 Nordeste 0 995.5 3.9 66
2019-06-05 21:00:00 15.8 11 Nordeste 30 Nordeste 0 994.5 3.3 60
2019-06-05 20:00:00 18.5 21 Nordeste 41 Nordeste 0 993.2 4 53
2019-06-05 19:00:00 19.7 30 Nordeste 45 Nordeste 0 991.6 2.9 52
2019-06-05 18:00:00 21.7 37 Nordeste 54 Nordeste 0 991.2 2.3 51
2019-06-05 17:00:00 25 14 Sudoeste 41 Sur 0 989.2 -0.1 55
2019-06-05 16:00:00 27.2 31 Sur 41 Sur 0 988.7 -1.1 41
2019-06-05 15:00:00 26.9 26 Sur 41 Sur 0 988.9 -1.5 50
2019-06-05 14:00:00 25.8 20 Sur 33 Sur 0 989.3 -1.8 51
2019-06-05 13:00:00 26.5 15 Sur 26 Sur 0 989.8 -1.7 48
2019-06-05 12:00:00 24.3 9 Sudeste 21 Sudeste 0 990.4 -1.3 56
2019-06-05 11:00:00 22.4 8 Sur 17 Sur 0 991.1 -1.2 63
2019-06-05 10:00:00 20.5 5 Nordeste 15 Nordeste 0 991.5 -1 70
2019-06-05 09:00:00 18.5 12 Nordeste 21 Norte 0 991.7 -0.7 82
2019-06-05 08:00:00 14.7 12 Norte 22 Norte 0 992.3 -0.3 99
2019-06-05 07:00:00 13.8 14 Norte 21 Norte 0 992.5 -0.4 87
2019-06-05 06:00:00 12.7 10 Norte 17 Norte 0 992.4 -1.1 85
2019-06-05 05:00:00 13.6 13 Norte 18 Norte 0 992.6 -1.3 83
2019-06-05 04:00:00 11.9 2 Norte 9 Nordeste 0 992.9 -1.3 89
2019-06-05 03:00:00 12.6 8 Nordeste 9 Norte 0 993.5 -0.8 89
2019-06-05 02:00:00 13.6 0 Calma 9 Oeste 0 993.9 -0.4 85
2019-06-05 01:00:00 15.1 8 Oeste 9 Oeste 0 994.2 0.2 81
2019-06-05 00:00:00 16.3 9 Sudoeste 13 Sudoeste 0 994.3 0.6 81
2019-06-04 23:00:00 17.2 9 Sudoeste 21 Sur 0 994.3 0.5 73
2019-06-04 22:00:00 19.6 12 Sur 24 Sur 0 994 0.4 61
2019-06-04 21:00:00 21.3 15 Sur 30 Sur 0 993.7 0 54
2019-06-04 20:00:00 23.6 25 Sur 42 Sur 0 993.8 -0.1 48
2019-06-04 19:00:00 25.9 27 Sur 45 Sur 0 993.6 -0.8 37
2019-06-04 18:00:00 26.8 31 Sur 46 Sur 0 993.7 -0.9 36
2019-06-04 17:00:00 27.8 31 Sur 54 Sur 0 993.9 -1.2 31
2019-06-04 16:00:00 28.4 38 Sur 55 Sur 0 994.4 -1.6 30
2019-06-04 15:00:00 28.6 39 Sur 52 Sur 0 994.6 -1.8 28
2019-06-04 14:00:00 28.9 35 Sur 50 Sur 0 995.1 -1.5 27
2019-06-04 13:00:00 28 31 Sur 48 Sur 0 996 -0.7 32
2019-06-04 12:00:00 26.7 28 Sur 39 Sur 0 996.4 -0.1 41
2019-06-04 11:00:00 26.3 22 Sur 33 Sur 0 996.6 0.2 37
2019-06-04 10:00:00 24.1 20 Sur 28 Sudoeste 0 996.7 0.3 42
2019-06-04 09:00:00 21.9 21 Sur 28 Sur 0 996.5 0.2 42
2019-06-04 08:00:00 18.7 5 Sur 9 Sur 0 996.4 -0.1 51
2019-06-04 07:00:00 14.1 5 Sudoeste 9 Sudoeste 0 996.4 -0.6 66
2019-06-04 06:00:00 13.9 5 Sudoeste 11 Sudoeste 0 996.3 -1 67
2019-06-04 05:00:00 14.4 0 Calma 8 Oeste 0 996.5 -1.4 69
2019-06-04 04:00:00 14.7 4 Sudoeste 8 Oeste 0 997 -1.3 68
2019-06-04 03:00:00 16.1 5 Oeste 13 Sudoeste 0 997.3 -1.3 64
2019-06-04 02:00:00 18.1 12 Sudoeste 18 Sudoeste 0 997.9 -0.9 55
2019-06-04 01:00:00 18 11 Sudoeste 17 Sudoeste 0 998.3 -0.3 59
2019-06-04 00:00:00 18.3 5 Sudoeste 22 Sur 0 998.6 0.2 66
2019-06-03 23:00:00 18.8 9 Sudoeste 30 Sur 0 998.8 0.3 64
2019-06-03 22:00:00 20.4 22 Sur 33 Sur 0 998.6 0.1 58
2019-06-03 21:00:00 22 23 Sur 37 Sur 0 998.4 -0.4 49
2019-06-03 20:00:00 24.6 27 Sur 42 Sur 0 998.5 -0.5 42
2019-06-03 19:00:00 26.7 32 Sur 45 Sur 0 998.5 -0.6 39
2019-06-03 18:00:00 29.2 28 Sur 42 Sur 0 998.8 -1 27
2019-06-03 17:00:00 29.8 29 Sur 46 Sur 0 999 -1.1 27
2019-06-03 16:00:00 30.2 32 Sur 42 Sur 0 999.1 -1.5 27
2019-06-03 15:00:00 30.6 27 Sur 37 Sur 0 999.8 -1.1 28
2019-06-03 14:00:00 31.4 25 Sur 41 Sudoeste 0 1000.1 -1 24
2019-06-03 13:00:00 30.2 27 Sudoeste 42 Sur 0 1000.6 -1 23
2019-06-03 12:00:00 28.5 25 Sudoeste 35 Sur 0 1000.9 -0.8 26
2019-06-03 11:00:00 24.8 6 Sur 11 Sur 0 1001.1 -0.2 36
2019-06-03 10:00:00 22.4 3 Este 11 Este 0 1001.6 0.5 44
2019-06-03 09:00:00 20.3 5 Nordeste 9 Nordeste 0 1001.7 1.1 50
2019-06-03 08:00:00 17.2 5 Nordeste 11 Norte 0 1001.3 0.7 62
2019-06-03 07:00:00 12.5 12 Norte 15 Nordeste 0 1001.1 0.3 79
2019-06-03 06:00:00 11.7 12 Norte 15 Norte 0 1000.6 -0.5 81
2019-06-03 05:00:00 11.4 9 Norte -- -- 0 1000.6 -0.7 82
2019-06-03 04:00:00 11.6 8 Nordeste 9 Nordeste 0 1000.8 -0.7 81
2019-06-03 03:00:00 13.1 0 Calma 5 Nordeste 0 1001.1 -0.6 77
2019-06-03 02:00:00 14.8 0 Calma 9 Sur 0 1001.3 -0.3 70
2019-06-03 01:00:00 17 8 Sur 11 Sur 0 1001.5 0.3 54
2019-06-03 00:00:00 17.8 8 Sudoeste 11 Sur 0 1001.7 0.9 52
2019-06-02 23:00:00 18.4 6 Sur 13 Sur 0 1001.6 1.1 54
2019-06-02 22:00:00 20.2 3 Sudeste 21 Sudeste 0 1001.2 0.8 48
2019-06-02 21:00:00 21.9 13 Sur 26 Sur 0 1000.8 0.3 38
2019-06-02 20:00:00 23.2 16 Sur 28 Sur 0 1000.5 0 33
2019-06-02 19:00:00 25.1 17 Sur 33 Sur 0 1000.4 -0.5 31
2019-06-02 18:00:00 28 25 Sur 35 Sur 0 1000.5 -0.8 28
2019-06-02 17:00:00 28.8 23 Sur 37 Sur 0 1000.5 -1.5 30
2019-06-02 16:00:00 28.6 26 Sur 39 Sur 0 1000.9 -1.7 34
2019-06-02 15:00:00 28.4 26 Sur 37 Sur 0 1001.3 -1.3 37
2019-06-02 14:00:00 28.2 22 Sur 32 Sur 0 1002 -0.9 42
2019-06-02 13:00:00 27.6 20 Sur 28 Sur 0 1002.6 -0.3 41
2019-06-02 12:00:00 27.1 16 Sur 28 Sur 0 1002.6 -0.3 34
2019-06-02 11:00:00 24.9 14 Sur 22 Sur 0 1002.9 0.1 37
2019-06-02 10:00:00 22.1 11 Sur 15 Sur 0 1002.9 0.4 46
2019-06-02 09:00:00 19 5 Sur 9 Sur 0 1002.9 0.6 58
2019-06-02 08:00:00 16.2 6 Nordeste 9 Nordeste 0 1002.8 0.5 70
2019-06-02 07:00:00 12.3 8 Nordeste 11 Nordeste 0 1002.5 -0.3 86
2019-06-02 06:00:00 10.9 4 Nordeste 5 Nordeste 0 1002.3 -0.9 90
2019-06-02 05:00:00 11.8 0 Calma 4 Sudeste 0 1002.3 -1.4 88
2019-06-02 04:00:00 12.5 0 Calma 4 Sudeste 0 1002.8 -1.3 87
2019-06-02 03:00:00 13.2 5 Sudoeste 5 Sudoeste 0 1003.2 -1.2 87
2019-06-02 02:00:00 14 0 Calma 9 Sudoeste 0 1003.7 -0.8 82
2019-06-02 01:00:00 14.8 6 Sur -- -- 0 1004.1 0.1 78
2019-06-02 00:00:00 15.5 6 Sudoeste 18 Sur 0 1004.4 0.7 75
2019-06-01 23:00:00 17.3 12 Sur 18 Sur 0 1004.5 1.2 69
2019-06-01 22:00:00 18.4 14 Sur 26 Sur 0 1004 0.8 64
2019-06-01 21:00:00 20.9 18 Sur 33 Sudoeste 0 1003.7 0.3 48
2019-06-01 20:00:00 23.6 23 Sur 33 Sur 0 1003.3 -0.4 39
2019-06-01 19:00:00 25.3 24 Sur 35 Sur 0 1003.2 -1 38
2019-06-01 18:00:00 26.5 21 Sur 33 Sur 0 1003.4 -1.1 39
2019-06-01 17:00:00 27 22 Sur 35 Sur 0 1003.7 -1.4 37
2019-06-01 16:00:00 28.4 22 Sur 33 Sur 0 1004.2 -1.4 32
2019-06-01 15:00:00 29 20 Sur 30 Sur 0 1004.5 -1.4 37
2019-06-01 14:00:00 29.1 13 Sur 22 Sur 0 1005.1 -1.1 33
2019-06-01 13:00:00 28.3 11 Sur 24 Sur 0 1005.6 -0.6 30
2019-06-01 12:00:00 26.8 8 Sur 17 Sur 0 1005.9 -0.4 35
2019-06-01 11:00:00 25.5 8 Sur 15 Sur 0 1006.2 0 38
2019-06-01 10:00:00 23.4 3 Este 9 Este 0 1006.2 0.2 49
2019-06-01 09:00:00 19.8 4 Este 9 Sudeste 0 1006.3 0.7 67
2019-06-01 08:00:00 15.9 2 Sur 8 Nordeste 0 1006.2 0.6 77
2019-06-01 07:00:00 11.7 5 Nordeste 8 Nordeste 0 1006 0.4 92
2019-06-01 06:00:00 10.1 3 Nordeste 8 Nordeste 0 1005.6 0 93
2019-06-01 05:00:00 10.8 6 Oeste 9 Oeste 0 1005.6 -0.4 93
2019-06-01 04:00:00 12 0 Calma 5 Sur 0 1005.6 -0.7 88
2019-06-01 03:00:00 12.5 4 Oeste 8 Oeste 0 1005.6 -0.9 87
2019-06-01 02:00:00 12.8 0 Calma 8 Sudoeste 0 1006 -0.7 86
2019-06-01 01:00:00 13.7 5 Oeste 9 Oeste 0 1006.3 -0.2 82
2019-06-01 00:00:00 14.9 8 Oeste 9 Oeste 0 1006.5 0.1 78
2019-05-31 23:00:00 15.6 0 Calma 8 Nordeste 0 1006.7 0.2 76
2019-05-31 22:00:00 18.4 2 Oeste 11 Sur 0 1006.5 -0.1 63
2019-05-31 21:00:00 20.6 8 Sur 15 Sur 0 1006.4 -0.1 54
2019-05-31 20:00:00 22.8 12 Sur 28 Sur 0 1006.5 -0.4 45
2019-05-31 19:00:00 24.1 15 Sur 32 Sur 0 1006.6 -0.5 38
2019-05-31 18:00:00 24.9 20 Sur 30 Sur 0 1006.5 -0.7 37
2019-05-31 17:00:00 25.1 21 Sur 42 Sudeste 0 1006.9 -0.5 38
2019-05-31 16:00:00 25.3 27 Sur 45 Sur 0 1007.1 -0.6 36
2019-05-31 15:00:00 26.2 28 Sur 41 Sur 0 1007.2 -0.8 35
2019-05-31 14:00:00 26.5 26 Sur 37 Sur 0 1007.4 -0.8 35
2019-05-31 13:00:00 26.4 22 Sur 32 Sur 0 1007.7 -0.8 37
2019-05-31 12:00:00 25.3 7 Sur 17 Sur 0 1008 -0.6 39
2019-05-31 11:00:00 24.1 6 Sur 15 Sur 0 1008.2 -0.3 42
2019-05-31 10:00:00 22.4 5 Sur 11 Sur 0 1008.5 0.1 56
2019-05-31 09:00:00 19.4 3 Este 8 Nordeste 0 1008.6 0.5 64
2019-05-31 08:00:00 15.4 0 Calma 5 Sur 0 1008.5 0.4 82
2019-05-31 07:00:00 10.9 5 Nordeste 8 Nordeste 0 1008.4 0.1 94
2019-05-31 06:00:00 10.2 2 Sudoeste 8 Sudoeste 0 1008.1 -0.5 96
2019-05-31 05:00:00 10.9 3 Nordeste 11 Este 0 1008.1 -0.8 95
2019-05-31 04:00:00 11.2 2 Sur 8 Sudeste 0 1008.3 -0.9 93
2019-05-31 03:00:00 12 0 Calma 5 Oeste 0 1008.6 -0.6 92
2019-05-31 02:00:00 13 0 Calma 9 Este 0 1008.9 -0.4 89
2019-05-31 01:00:00 13.8 5 Oeste 8 Oeste 0 1009.2 0.5 88
2019-05-31 00:00:00 13.9 5 Norte 9 Nordeste 0 1009.2 1.2 87
2019-05-30 23:00:00 15.1 4 Sudoeste 13 Sudoeste 0 1009.3 1.8 82
2019-05-30 22:00:00 16.2 2 Este 15 Sur 0 1008.7 1.3 77
2019-05-30 21:00:00 18.7 10 Sur 18 Sur 0 1008 0.5 61
2019-05-30 20:00:00 20.6 14 Sudoeste 26 Sur 0 1007.5 -0.2 54
2019-05-30 19:00:00 22.2 20 Sur 28 Sur 0 1007.4 -0.3 52
2019-05-30 18:00:00 23 20 Sur 32 Sur 0 1007.5 -0.3 51
2019-05-30 17:00:00 24 20 Sur 28 Sur 0 1007.7 -0.3 45
2019-05-30 16:00:00 24.2 19 Sur 35 Sur 0 1007.7 -0.6 45
2019-05-30 15:00:00 24.6 23 Sur 37 Sur 0 1007.8 -0.9 44
2019-05-30 14:00:00 25 9 Sudeste 22 Este 0 1008 -0.9 36
2019-05-30 13:00:00 24.3 6 Sur 17 Sur 0 1008.3 -0.5 37
2019-05-30 12:00:00 22.3 7 Sur 13 Sur 0 1008.7 -0.2 44
2019-05-30 11:00:00 20.9 7 Sur 13 Sudoeste 0 1008.9 0.2 48
2019-05-30 10:00:00 19.1 3 Sur 8 Sur 0 1008.8 0.4 59
2019-05-30 09:00:00 16.6 4 Sur 9 Sur 0 1008.9 1 75
2019-05-30 08:00:00 13.4 3 Nordeste 5 Este 0 1008.7 0.9 87
2019-05-30 07:00:00 9.7 0 Calma 9 Sudoeste 0 1008.4 0.6 96
2019-05-30 06:00:00 9.1 0 Calma 15 Sudeste 0 1007.9 0.1 97
2019-05-30 05:00:00 9.6 9 Noroeste 13 Norte 0 1007.8 -0.2 97
2019-05-30 04:00:00 9.5 5 Nordeste 9 Este 0 1007.8 -0.2 97
2019-05-30 03:00:00 10.3 3 Oeste 11 Oeste 0 1007.8 -0.3 97
2019-05-30 02:00:00 10.7 7 Nordeste 11 Este 0 1008 0.7 96
2019-05-30 01:00:00 11.4 8 Oeste 9 Oeste 0 1008 1.7 94
2019-05-30 00:00:00 12.7 4 Nordeste 9 Este 0 1008.1 2.7 92
2019-05-29 23:00:00 13.5 5 Este 11 Sur 0 1007.3 2.5 89
2019-05-29 22:00:00 15.2 3 Sudoeste 15 Sur 0 1006.3 2.1 84
2019-05-29 21:00:00 16.7 12 Sur 21 Sur 0 1005.4 1.4 79
2019-05-29 20:00:00 18.1 17 Sur 26 Sur 0 1004.8 1.1 70
2019-05-29 19:00:00 20.9 19 Sur 28 Sur 0 1004.2 0.4 57
2019-05-29 18:00:00 20.2 20 Sur 35 Sudoeste 0 1004 0.3 57
2019-05-29 17:00:00 21.8 19 Sur 33 Sur 0 1003.7 -0.1 49
2019-05-29 16:00:00 21.2 26 Sur 39 Sur 0 1003.8 -0.1 57
2019-05-29 15:00:00 21.4 17 Sur 30 Sur 0 1003.7 0 53
2019-05-29 14:00:00 21.3 9 Sur 21 Sur 0 1003.8 -0.1 49
2019-05-29 13:00:00 21.2 9 Sudoeste 17 Sudoeste 0 1003.9 0 49
2019-05-29 12:00:00 20.6 8 Sudoeste 18 Sudoeste 0 1003.7 0.1 52
2019-05-29 11:00:00 19 5 Sudeste 15 Nordeste 0 1003.9 0.7 53
2019-05-29 10:00:00 16.7 9 Nordeste 18 Nordeste 0 1003.9 1.2 58
2019-05-29 09:00:00 15.4 10 Norte 15 Norte 0 1003.6 1.2 80
2019-05-29 08:00:00 12.1 0 Calma 9 Este 0 1003.2 1.2 94
2019-05-29 07:00:00 10.4 5 Oeste 11 Norte 0 1002.7 0.6 98
2019-05-29 06:00:00 9.6 6 Norte 15 Oeste 0 1002.4 0.4 99
2019-05-29 05:00:00 9.4 8 Oeste 15 Oeste 0 1002 -0.1 99
2019-05-29 04:00:00 10.1 3 Oeste 11 Nordeste 0 1002.1 0.3 98
2019-05-29 03:00:00 11.3 8 Noroeste 13 Norte 0 1002 0.7 98
2019-05-29 02:00:00 11.4 6 Noroeste 9 Noroeste 0 1002.1 1.1 97
2019-05-29 01:00:00 11.9 10 Norte 13 Norte 0 1001.8 1.4 98
2019-05-29 00:00:00 12.8 0 Calma 15 Sudoeste 0 1001.3 1.7 97
2019-05-28 23:00:00 13.4 9 Oeste 17 Oeste 0 1001 1.8 94
2019-05-28 22:00:00 13.3 8 Sudoeste 13 Sudoeste 0 1000.4 1.8 96
2019-05-28 21:00:00 14 10 Sudoeste 17 Sudoeste 0.8 999.6 1.4 96
2019-05-28 20:00:00 14.3 8 Sudoeste 22 Sudoeste 0 999.2 0.7 94
2019-05-28 19:00:00 14.7 13 Sudoeste 22 Sudoeste 1 998.6 0.6 87
2019-05-28 18:00:00 16.7 14 Sudoeste 22 Sudoeste 0 998.2 0.6 75
2019-05-28 17:00:00 16.7 8 Este 17 Sur 0.1 998.5 0.9 82
2019-05-28 16:00:00 16.5 13 Sur 26 Sur 2.1 998 0.6 80
2019-05-28 15:00:00 19.2 20 Sur 30 Sudoeste 0 997.6 0.2 61
2019-05-28 14:00:00 20.4 19 Sur 28 Sur 0 997.6 0.6 58
2019-05-28 13:00:00 22.3 13 Sur 22 Sur 0 997.4 0 55
2019-05-28 12:00:00 20.9 10 Sur 17 Sur 0 997.4 0.2 53
2019-05-28 11:00:00 20.4 8 Sudeste 15 Sudeste 0 997 0.1 56
2019-05-28 10:00:00 17.6 7 Nordeste 15 Norte 0 997.4 0.9 66
2019-05-28 09:00:00 16.9 10 Nordeste 15 Nordeste 0 997.2 1.1 71
2019-05-28 08:00:00 15.4 8 Nordeste 13 Nordeste 0 996.9 0.9 85
2019-05-28 07:00:00 12.9 0 Calma 9 Norte 0 996.5 0.7 98
2019-05-28 06:00:00 12.5 2 Oeste 9 Nordeste 0 996.1 0.1 99
2019-05-28 05:00:00 11.7 0 Calma 9 Noroeste 0 996 -0.4 97
2019-05-28 04:00:00 12.5 0 Calma 9 Norte 0 995.8 -1.2 97
2019-05-28 03:00:00 13.3 5 Nordeste 9 Nordeste 0 996 -0.9 98
2019-05-28 02:00:00 13.9 4 Este 8 Este 0 996.4 -0.5 95
2019-05-28 01:00:00 14.8 6 Sur 11 Sur 0 997 0.4 95
2019-05-28 00:00:00 15.3 6 Sudoeste 15 Sudoeste 0 996.9 0.6 94